Time;durP1;ratioP1;P1;durP2;ratioP2;P2;SDS_P1;SDS_P2;PMS_P1;PMS_P2;Temp;Humidity;BMP_temperature;BMP_pressure;BME280_temperature;BME280_humidity;BME280_pressure;Samples;Min_cycle;Max_cycle;Signal;HPM_P1;HPM_P2
2021/08/07 00:00:25;;;;;;;6.38;2.63;;;;;;;22.94;68.49;99872.25;5115119;28;20121;-70
2021/08/07 00:02:51;;;;;;;5.13;2.63;;;;;;;22.99;68.15;99866.81;5115140;27;20118;-70
2021/08/07 00:05:22;;;;;;;6.10;2.95;;;;;;;23.00;68.14;99868.38;5131714;27;20027;-70
2021/08/07 00:07:47;;;;;;;3.10;2.10;;;;;;;22.90;68.22;99863.06;5114540;28;20122;-70
2021/08/07 00:10:19;;;;;;;2.72;2.00;;;;;;;22.90;68.35;99869.53;5113595;28;20052;-69
2021/08/07 00:12:47;;;;;;;4.15;2.20;;;;;;;22.89;68.21;99861.47;5114372;27;20027;-69
2021/08/07 00:15:15;;;;;;;2.58;2.25;;;;;;;22.91;68.29;99865.47;5114910;28;20020;-69
2021/08/07 00:17:40;;;;;;;3.22;2.30;;;;;;;22.88;68.33;99869.19;5113901;28;20028;-69
2021/08/07 00:20:09;;;;;;;5.20;2.20;;;;;;;22.87;68.61;99870.44;5114851;28;20125;-69
2021/08/07 00:22:35;;;;;;;4.03;2.47;;;;;;;22.85;68.49;99872.13;5114539;28;20037;-70
2021/08/07 00:25:04;;;;;;;5.03;2.47;;;;;;;22.85;68.69;99872.94;5114465;28;20458;-69
2021/08/07 00:27:34;;;;;;;4.22;2.30;;;;;;;22.88;68.36;99871.25;5131470;27;20466;-69
2021/08/07 00:30:02;;;;;;;5.35;2.47;;;;;;;22.80;68.85;99859.31;5114406;28;20061;-69
2021/08/07 00:32:30;;;;;;;6.97;2.35;;;;;;;22.73;68.70;99862.38;5114255;28;20034;-69
2021/08/07 00:34:56;;;;;;;6.05;2.85;;;;;;;22.62;68.97;99856.25;5114578;28;20032;-70
2021/08/07 00:37:22;;;;;;;5.03;2.20;;;;;;;22.61;69.34;99852.63;5113981;28;20474;-70
2021/08/07 00:39:50;;;;;;;3.38;2.20;;;;;;;22.57;69.29;99854.75;5113957;28;20028;-70
2021/08/07 00:42:22;;;;;;;3.90;2.50;;;;;;;22.63;69.18;99861.44;5113862;28;20019;-70
2021/08/07 00:44:56;;;;;;;3.95;2.63;;;;;;;22.60;69.60;99861.59;5113720;28;20020;-70
2021/08/07 00:47:27;;;;;;;5.13;2.33;;;;;;;22.72;69.01;99857.94;5113670;28;20039;-69
2021/08/07 00:49:55;;;;;;;7.70;2.60;;;;;;;22.80;68.93;99859.31;5113877;28;20101;-70
2021/08/07 00:52:26;;;;;;;5.20;3.22;;;;;;;22.74;69.16;99866.78;5115122;28;20028;-70
2021/08/07 00:54:55;;;;;;;4.07;2.28;;;;;;;22.63;69.21;99860.66;5113515;28;20032;-70
2021/08/07 00:57:23;;;;;;;5.32;2.63;;;;;;;22.59;69.31;99860.78;5113472;28;20034;-70
2021/08/07 00:59:49;;;;;;;5.35;2.60;;;;;;;22.70;68.93;99858.41;5113327;28;20039;-70
2021/08/07 01:02:17;;;;;;;5.18;2.30;;;;;;;22.59;68.88;99860.78;5113328;28;20035;-70
2021/08/07 01:05:02;;;;;;;4.05;2.20;;;;;;;22.61;69.23;99863.97;5113201;28;20038;-69
2021/08/07 01:07:34;;;;;;;4.38;2.28;;;;;;;22.54;69.58;99858.53;5113169;28;20122;-69
2021/08/07 01:10:18;;;;;;;4.43;2.70;;;;;;;22.44;69.31;99834.94;5113106;28;20118;-70
2021/08/07 01:12:54;;;;;;;3.78;2.40;;;;;;;22.44;69.77;99851.13;5113482;28;20034;-70
2021/08/07 01:15:27;;;;;;;3.95;2.50;;;;;;;22.54;69.69;99858.53;5113638;28;20088;-70
2021/08/07 01:17:54;;;;;;;10.80;2.65;;;;;;;22.61;69.07;99863.97;5112683;28;20035;-70
2021/08/07 01:20:45;;;;;;;1.95;1.80;;;;;;;22.66;68.75;99856.94;5113546;28;20461;-70
2021/08/07 01:23:23;;;;;;;2.15;1.80;;;;;;;22.62;68.66;99864.75;5098531;28;20039;-70
2021/08/07 01:25:56;;;;;;;3.83;2.00;;;;;;;22.55;69.30;99859.31;5112804;28;20055;-70
2021/08/07 01:28:29;;;;;;;7.18;2.55;;;;;;;22.47;69.62;99864.41;5112815;28;20027;-71
2021/08/07 01:31:02;;;;;;;3.92;2.22;;;;;;;22.43;69.77;99858.84;5130035;27;20031;-70
2021/08/07 01:33:29;;;;;;;6.30;2.17;;;;;;;22.56;69.12;99860.91;5112872;28;20030;-71
2021/08/07 01:36:02;;;;;;;4.75;2.10;;;;;;;22.46;69.46;99859.97;5113480;28;20374;-71
2021/08/07 01:38:29;;;;;;;5.18;2.33;;;;;;;22.54;69.59;99866.25;5113878;28;20104;-71
2021/08/07 01:40:58;;;;;;;5.00;2.60;;;;;;;22.47;69.34;99859.50;5113318;28;20076;-71
2021/08/07 01:43:29;;;;;;;6.65;2.60;;;;;;;22.45;69.51;99867.69;5112786;28;20038;-71
2021/08/07 01:45:55;;;;;;;2.65;2.10;;;;;;;22.44;69.83;99866.09;5130084;27;20528;-70
2021/08/07 01:48:37;;;;;;;3.08;2.30;;;;;;;22.22;69.88;99842.50;5112627;28;20028;-70
2021/08/07 01:51:22;;;;;;;4.28;2.65;;;;;;;22.42;70.00;99871.41;5127602;27;20032;-70
2021/08/07 01:53:54;;;;;;;5.68;2.65;;;;;;;22.55;69.82;99865.78;5112797;28;20028;-69
2021/08/07 01:56:29;;;;;;;5.38;3.08;;;;;;;22.54;69.66;99869.06;5129741;28;20035;-70
2021/08/07 01:59:04;;;;;;;5.32;2.80;;;;;;;22.50;70.24;99874.84;5112629;28;20033;-69
2021/08/07 02:01:30;;;;;;;5.03;2.60;;;;;;;22.47;69.94;99884.25;5113862;28;20026;-70
2021/08/07 02:04:04;;;;;;;2.90;2.60;;;;;;;22.53;69.88;99879.63;5112522;28;20031;-70
2021/08/07 02:06:38;;;;;;;3.15;2.63;;;;;;;22.52;69.51;99878.00;5113099;28;20369;-71
2021/08/07 02:09:04;;;;;;;2.40;2.20;;;;;;;22.46;70.18;99880.63;5112541;28;20027;-69
2021/08/07 02:11:34;;;;;;;7.25;2.60;;;;;;;22.49;70.19;99871.22;5112505;28;20047;-69
2021/08/07 02:14:03;;;;;;;5.03;2.70;;;;;;;22.39;70.88;99875.16;5112390;28;20020;-70
2021/08/07 02:16:29;;;;;;;4.18;2.50;;;;;;;22.40;70.72;99870.28;5112359;28;20026;-70
2021/08/07 02:19:00;;;;;;;5.25;2.70;;;;;;;22.39;70.68;99863.84;5129214;28;20044;-70
2021/08/07 02:21:27;;;;;;;7.85;3.50;;;;;;;22.30;70.90;99863.69;5112626;28;20195;-69
2021/08/07 02:23:58;;;;;;;8.85;7.15;;;;;;;22.28;70.97;99862.56;5112431;28;20023;-70
2021/08/07 02:26:26;;;;;;;11.18;9.65;;;;;;;22.27;71.33;99866.66;5112900;28;20394;-70
2021/08/07 02:28:59;;;;;;;13.50;10.35;;;;;;;22.20;71.49;99865.59;5112612;28;20436;-70
2021/08/07 02:31:25;;;;;;;7.45;6.68;;;;;;;22.19;72.52;99857.56;5112360;28;20084;-70
2021/08/07 02:33:52;;;;;;;13.20;8.15;;;;;;;22.18;72.39;99853.94;5116050;28;20034;-70
2021/08/07 02:36:21;;;;;;;7.10;5.65;;;;;;;22.13;72.82;99851.66;5116351;28;20118;-70
2021/08/07 02:38:47;;;;;;;21.80;18.80;;;;;;;22.16;72.96;99855.66;5133433;27;20047;-70
2021/08/07 02:41:14;;;;;;;13.35;11.35;;;;;;;22.24;72.53;99859.84;5116548;28;20389;-69
2021/08/07 02:43:45;;;;;;;12.55;11.35;;;;;;;22.26;71.69;99865.03;5116435;28;20031;-69
2021/08/07 02:46:14;;;;;;;15.80;14.20;;;;;;;22.19;71.72;99858.34;5117480;28;20106;-69
2021/08/07 02:48:47;;;;;;;14.57;13.10;;;;;;;22.17;71.61;99852.34;5116156;28;20458;-70
2021/08/07 02:51:15;;;;;;;9.80;8.73;;;;;;;22.15;71.69;99843.50;5116650;28;20114;-70
2021/08/07 02:53:45;;;;;;;5.05;4.47;;;;;;;22.27;71.26;99850.44;5115886;28;20020;-69
2021/08/07 02:56:14;;;;;;;4.93;3.45;;;;;;;22.26;71.31;99842.38;5116536;28;20038;-70
2021/08/07 02:58:43;;;;;;;4.90;2.90;;;;;;;22.34;71.14;99844.56;5133002;27;20123;-69
2021/08/07 03:01:12;;;;;;;4.10;3.08;;;;;;;22.23;71.74;99839.22;5115759;28;20034;-69
2021/08/07 03:03:39;;;;;;;6.53;3.38;;;;;;;22.31;71.40;99845.44;5115904;28;20382;-70
2021/08/07 03:06:05;;;;;;;5.18;2.90;;;;;;;22.26;71.80;99836.72;5115931;28;20031;-70
2021/08/07 03:08:31;;;;;;;3.78;3.47;;;;;;;22.15;71.69;99837.81;5115861;28;20376;-70
2021/08/07 03:11:01;;;;;;;2.88;2.67;;;;;;;22.09;72.08;99845.25;5115475;28;20500;-70
2021/08/07 03:13:26;;;;;;;4.63;2.70;;;;;;;22.09;72.08;99841.63;5116451;28;20043;-70
2021/08/07 03:15:56;;;;;;;3.50;2.67;;;;;;;22.16;72.03;99847.16;5115427;28;20024;-70
2021/08/07 03:18:24;;;;;;;4.78;2.67;;;;;;;22.11;72.06;99842.03;5115439;28;20055;-70
2021/08/07 03:20:57;;;;;;;4.25;2.70;;;;;;;22.15;72.24;99834.19;5115224;28;20032;-70
2021/08/07 03:23:27;;;;;;;5.73;2.73;;;;;;;22.17;72.20;99834.56;5116322;28;20505;-70
2021/08/07 03:25:52;;;;;;;5.22;3.67;;;;;;;22.16;71.92;99833.78;5115428;28;20035;-69
2021/08/07 03:28:20;;;;;;;4.13;2.70;;;;;;;22.21;71.93;99829.56;5115368;28;20030;-69
2021/08/07 03:30:46;;;;;;;5.15;2.92;;;;;;;22.23;71.90;99833.53;5115386;28;20039;-69
2021/08/07 03:33:12;;;;;;;7.82;3.17;;;;;;;22.23;72.13;99833.53;5115189;28;20088;-70
2021/08/07 03:35:40;;;;;;;5.28;2.80;;;;;;;22.22;72.32;99834.00;5132951;27;20031;-70
2021/08/07 03:38:06;;;;;;;4.35;3.53;;;;;;;22.31;71.82;99827.66;5115223;28;20092;-69
2021/08/07 03:40:35;;;;;;;7.45;2.67;;;;;;;22.27;72.57;99824.94;5115443;28;20032;-70
2021/08/07 03:43:06;;;;;;;7.10;3.25;;;;;;;22.25;72.01;99829.47;5114378;28;20031;-70
2021/08/07 03:45:37;;;;;;;7.10;2.97;;;;;;;22.19;72.48;99817.88;5114990;28;20035;-70
2021/08/07 03:48:05;;;;;;;5.78;3.80;;;;;;;22.21;72.24;99819.03;5115652;28;20126;-70
2021/08/07 03:50:31;;;;;;;11.38;3.55;;;;;;;22.18;72.51;99831.25;5114993;28;20027;-70
2021/08/07 03:52:59;;;;;;;4.97;3.17;;;;;;;22.19;71.99;99837.72;5114887;27;20050;-70
2021/08/07 03:55:27;;;;;;;3.83;3.35;;;;;;;22.13;71.93;99836.69;5115388;28;20428;-70
2021/08/07 03:58:01;;;;;;;6.50;3.47;;;;;;;22.07;72.59;99842.09;5115857;28;20497;-70
2021/08/07 04:00:35;;;;;;;5.78;2.95;;;;;;;22.07;72.80;99841.31;5115101;28;20370;-70
2021/08/07 04:03:04;;;;;;;4.80;3.10;;;;;;;22.13;72.54;99839.53;5111817;28;20077;-69
2021/08/07 04:05:29;;;;;;;3.42;3.10;;;;;;;22.16;72.44;99833.78;5114693;28;20051;-70
2021/08/07 04:08:03;;;;;;;4.10;3.00;;;;;;;22.12;72.65;99849.28;5114551;28;20031;-71
2021/08/07 04:10:30;;;;;;;4.90;3.28;;;;;;;22.18;72.26;99853.13;5116167;28;20121;-70
2021/08/07 04:13:01;;;;;;;4.82;2.58;;;;;;;22.08;72.20;99851.38;5114504;28;20538;-70
2021/08/07 04:15:26;;;;;;;4.80;2.08;;;;;;;21.98;72.04;99839.91;5114495;28;20067;-69
2021/08/07 04:17:54;;;;;;;4.40;2.63;;;;;;;22.12;72.11;99849.28;5131678;27;20078;-70
2021/08/07 04:20:24;;;;;;;5.68;2.72;;;;;;;22.15;71.91;99854.03;5115624;28;20123;-70
2021/08/07 04:22:52;;;;;;;4.50;2.60;;;;;;;22.17;71.93;99845.91;5114601;28;20024;-70
2021/08/07 04:25:18;;;;;;;12.30;9.40;;;;;;;22.13;71.92;99851.66;5131631;27;20035;-70
2021/08/07 04:27:50;;;;;;;13.93;10.57;;;;;;;22.09;71.94;99865.09;5114743;28;20023;-70
2021/08/07 04:30:21;;;;;;;10.38;7.93;;;;;;;22.03;72.19;99854.78;5114656;28;20420;-69
2021/08/07 04:32:53;;;;;;;6.65;5.95;;;;;;;22.26;71.70;99868.66;5114067;28;20024;-70
2021/08/07 04:35:24;;;;;;;11.15;6.90;;;;;;;22.82;70.24;99871.00;5131775;27;20042;-71
2021/08/07 04:37:55;;;;;;;9.07;5.82;;;;;;;23.45;68.16;99869.34;5114044;28;20027;-70
2021/08/07 04:40:26;;;;;;;11.70;5.95;;;;;;;24.03;65.94;99872.53;5115248;28;20024;-70
2021/08/07 04:42:54;;;;;;;10.23;5.65;;;;;;;24.64;63.40;99872.28;5114158;28;20043;-71
2021/08/07 04:45:23;;;;;;;9.60;5.25;;;;;;;25.17;61.42;99883.56;5113893;28;20031;-71
2021/08/07 04:47:58;;;;;;;7.45;3.78;;;;;;;25.62;59.15;99891.41;5113843;28;20543;-70
2021/08/07 04:50:29;;;;;;;6.15;2.80;;;;;;;25.88;58.22;99862.59;5114358;28;20383;-71
2021/08/07 04:52:55;;;;;;;4.30;2.35;;;;;;;26.40;56.89;99889.91;5131021;27;20076;-71
2021/08/07 04:55:24;;;;;;;8.50;3.05;;;;;;;26.82;55.41;99892.81;5115121;28;20404;-71
2021/08/07 04:57:54;;;;;;;4.13;2.58;;;;;;;27.18;54.39;99890.31;5113559;28;20028;-71
2021/08/07 05:00:23;;;;;;;6.40;2.47;;;;;;;27.65;53.60;99901.75;5113551;28;20070;-71
2021/08/07 05:02:51;;;;;;;4.03;3.03;;;;;;;28.01;52.80;99910.53;5113562;28;20028;-71
2021/08/07 05:05:19;;;;;;;4.55;2.58;;;;;;;28.07;51.73;99908.56;5114081;28;20027;-70
2021/08/07 05:07:48;;;;;;;3.63;2.35;;;;;;;28.24;51.98;99906.84;5113519;28;20028;-71
2021/08/07 05:10:17;;;;;;;3.95;2.20;;;;;;;28.49;51.23;99905.47;5130431;27;20080;-71
2021/08/07 05:12:42;;;;;;;4.47;2.17;;;;;;;28.55;50.75;99897.81;5130567;27;20054;-72
2021/08/07 05:15:11;;;;;;;6.45;2.33;;;;;;;28.88;49.96;99899.63;5113699;28;20063;-71
2021/08/07 05:17:37;;;;;;;2.88;2.00;;;;;;;28.95;49.54;99902.09;5113513;28;20369;-70
2021/08/07 05:20:03;;;;;;;9.52;2.22;;;;;;;28.84;49.53;99899.03;5113315;28;20031;-71
2021/08/07 05:22:29;;;;;;;5.28;1.88;;;;;;;29.04;49.56;99899.13;5130009;27;20031;-71
2021/08/07 05:25:00;;;;;;;2.45;1.98;;;;;;;29.05;49.09;99897.84;5113048;28;20106;-71
2021/08/07 05:27:31;;;;;;;2.85;2.13;;;;;;;29.01;49.76;99900.13;5113212;28;20266;-70
2021/08/07 05:29:59;;;;;;;3.30;1.80;;;;;;;29.05;49.26;99900.72;5112982;28;20028;-70
2021/08/07 05:32:30;;;;;;;6.50;2.22;;;;;;;29.37;49.25;99904.56;5113044;28;20034;-71
2021/08/07 05:34:58;;;;;;;3.45;2.25;;;;;;;29.84;46.85;99904.66;5113325;28;20028;-71
2021/08/07 05:37:27;;;;;;;6.15;2.25;;;;;;;29.53;48.10;99905.28;5112954;28;20027;-70
2021/08/07 05:39:52;;;;;;;4.55;2.05;;;;;;;29.72;47.29;99912.31;5130653;27;20024;-71
2021/08/07 05:42:18;;;;;;;3.33;2.22;;;;;;;29.48;47.80;99918.25;5113192;28;20038;-71
2021/08/07 05:44:46;;;;;;;8.45;2.25;;;;;;;29.83;47.61;99923.97;5112779;28;20458;-71
2021/08/07 05:47:14;;;;;;;6.97;1.95;;;;;;;29.11;49.18;99921.63;5112791;28;20064;-70
2021/08/07 05:49:42;;;;;;;3.05;1.50;;;;;;;29.88;47.24;99913.81;5113546;28;20059;-70
2021/08/07 05:52:11;;;;;;;6.63;1.80;;;;;;;30.11;46.98;99909.94;5129819;27;20036;-70
2021/08/07 05:54:39;;;;;;;2.90;1.95;;;;;;;30.20;47.07;99918.41;5112626;28;20116;-71
2021/08/07 05:57:07;;;;;;;6.22;2.30;;;;;;;30.31;46.53;99925.53;5113341;28;20023;-71
2021/08/07 05:59:35;;;;;;;6.30;2.28;;;;;;;30.29;46.26;99922.41;5113143;28;20089;-70
2021/08/07 06:02:02;;;;;;;3.47;2.10;;;;;;;30.18;46.89;99914.47;5112587;28;20028;-69
2021/08/07 06:04:31;;;;;;;5.30;2.05;;;;;;;30.23;46.28;99917.38;5112438;28;20063;-71
2021/08/07 06:06:58;;;;;;;7.28;3.80;;;;;;;30.16;46.49;99914.97;5113360;28;20028;-70
2021/08/07 06:09:27;;;;;;;11.10;3.90;;;;;;;29.92;47.00;99909.44;5116871;28;20030;-70
2021/08/07 06:11:55;;;;;;;7.88;3.67;;;;;;;30.02;47.14;99912.94;5116684;28;20034;-70
2021/08/07 06:14:24;;;;;;;5.68;3.45;;;;;;;29.53;48.06;99911.03;5117129;28;20424;-71
2021/08/07 06:16:52;;;;;;;6.07;3.10;;;;;;;30.14;46.27;99908.16;5116730;28;20035;-71
2021/08/07 06:19:18;;;;;;;7.82;2.08;;;;;;;29.30;48.84;99912.78;5116331;28;20100;-72
2021/08/07 06:21:46;;;;;;;7.88;2.55;;;;;;;29.83;47.88;99911.66;5117240;28;20041;-73
2021/08/07 06:24:14;;;;;;;3.55;2.03;;;;;;;30.36;46.06;99907.59;5134357;27;20039;-72
2021/08/07 06:26:45;;;;;;;5.72;2.60;;;;;;;29.74;48.16;99919.16;5116459;28;20028;-71
2021/08/07 06:29:15;;;;;;;2.40;1.70;;;;;;;30.23;47.17;99911.66;5116886;28;20122;-71
2021/08/07 06:31:44;;;;;;;6.80;3.05;;;;;;;30.04;47.00;99910.34;5116271;28;20062;-71
2021/08/07 06:34:11;;;;;;;4.70;2.42;;;;;;;30.58;46.30;99924.25;5116782;28;20118;-71
2021/08/07 06:36:37;;;;;;;4.35;3.33;;;;;;;29.81;47.63;99914.25;5116017;28;20035;-72
2021/08/07 06:39:08;;;;;;;7.40;3.40;;;;;;;30.32;46.52;99907.84;5116769;28;20481;-71
2021/08/07 06:41:34;;;;;;;5.07;3.10;;;;;;;30.92;45.30;99911.00;5116230;28;20496;-71
2021/08/07 06:44:00;;;;;;;9.15;4.05;;;;;;;31.17;44.57;99918.75;5116058;28;20023;-71
2021/08/07 06:46:28;;;;;;;10.23;3.97;;;;;;;31.06;45.35;99924.44;5116109;28;20027;-71
2021/08/07 06:48:56;;;;;;;5.30;3.63;;;;;;;31.69;43.54;99926.38;5116384;28;20032;-72
2021/08/07 06:51:27;;;;;;;5.82;3.88;;;;;;;32.28;42.85;99937.88;5115954;28;20028;-72
2021/08/07 06:53:55;;;;;;;4.28;3.00;;;;;;;32.58;41.62;99934.53;5116473;28;20031;-71
2021/08/07 06:56:26;;;;;;;5.55;3.05;;;;;;;32.25;42.31;99935.25;5115829;28;20031;-72
2021/08/07 06:58:57;;;;;;;5.47;3.38;;;;;;;32.32;42.03;99929.75;5115767;28;20481;-71
2021/08/07 07:01:27;;;;;;;3.92;3.35;;;;;;;33.48;39.81;99941.06;5116030;28;20027;-72
2021/08/07 07:03:58;;;;;;;6.88;3.15;;;;;;;33.82;38.14;99926.53;5117321;28;20054;-72
2021/08/07 07:06:23;;;;;;;5.10;3.05;;;;;;;33.58;38.95;99938.69;5116697;27;20088;-72
2021/08/07 07:08:51;;;;;;;5.82;2.50;;;;;;;34.00;38.14;99933.84;5133566;27;20462;-72
2021/08/07 07:11:20;;;;;;;7.35;2.58;;;;;;;34.31;38.01;99938.41;5115514;28;20031;-71
2021/08/07 07:13:51;;;;;;;6.50;3.05;;;;;;;34.59;36.88;99944.00;5115384;28;20031;-72
2021/08/07 07:16:22;;;;;;;5.47;3.60;;;;;;;34.29;37.10;99933.13;5115490;28;20066;-72
2021/08/07 07:18:50;;;;;;;6.30;3.40;;;;;;;32.31;40.73;99939.69;5115007;28;20054;-71
2021/08/07 07:21:22;;;;;;;6.13;3.05;;;;;;;32.13;42.17;99933.66;5115407;28;20060;-71
2021/08/07 07:23:50;;;;;;;5.57;2.73;;;;;;;31.30;43.51;99929.81;5115146;28;20028;-72
2021/08/07 07:26:18;;;;;;;7.57;3.65;;;;;;;31.77;42.77;99919.63;5115525;28;20320;-73
2021/08/07 07:28:47;;;;;;;5.15;3.53;;;;;;;32.31;42.16;99933.94;5115712;28;20489;-71
2021/08/07 07:31:15;;;;;;;7.07;3.80;;;;;;;31.59;43.21;99920.06;5132311;27;20059;-71
2021/08/07 07:33:41;;;;;;;5.68;3.65;;;;;;;32.03;42.09;99924.47;5132078;27;20028;-72
2021/08/07 07:36:12;;;;;;;5.25;3.85;;;;;;;31.58;42.53;99915.59;5115450;28;20058;-71
2021/08/07 07:38:42;;;;;;;6.80;3.58;;;;;;;31.89;42.27;99919.69;5116003;28;20040;-72
2021/08/07 07:41:17;;;;;;;4.93;3.08;;;;;;;32.36;41.44;99920.13;5099063;28;20386;-71
2021/08/07 07:43:46;;;;;;;5.35;3.00;;;;;;;33.41;39.45;99923.50;5116109;28;20031;-72
2021/08/07 07:46:14;;;;;;;4.97;3.30;;;;;;;33.99;37.96;99914.97;5115047;28;20032;-72
2021/08/07 07:48:41;;;;;;;5.18;2.97;;;;;;;33.43;39.04;99929.56;5098121;28;20059;-72
2021/08/07 07:51:09;;;;;;;7.65;3.38;;;;;;;33.06;39.49;99919.88;5114830;28;20031;-73
2021/08/07 07:53:35;;;;;;;4.82;3.45;;;;;;;33.84;37.98;99912.38;5116063;27;20158;-72
2021/08/07 07:56:06;;;;;;;4.80;2.70;;;;;;;33.52;38.17;99924.28;5115029;28;20089;-71
2021/08/07 07:58:32;;;;;;;5.43;2.80;;;;;;;34.04;37.19;99905.50;5114766;28;20059;-73
2021/08/07 08:00:57;;;;;;;5.35;3.58;;;;;;;33.09;38.71;99909.44;5114656;28;20069;-72
2021/08/07 08:03:25;;;;;;;4.20;3.20;;;;;;;33.06;38.78;99910.47;5114596;28;20024;-72
2021/08/07 08:05:54;;;;;;;4.00;2.80;;;;;;;33.04;38.54;99919.66;5114603;28;20066;-72
2021/08/07 08:08:22;;;;;;;5.22;2.88;;;;;;;34.45;35.70;99917.03;5114786;28;20128;-72
2021/08/07 08:10:53;;;;;;;3.60;2.95;;;;;;;34.18;37.09;99915.09;5116085;28;20069;-72
2021/08/07 08:13:24;;;;;;;3.13;2.65;;;;;;;32.83;39.34;99924.88;5114390;28;20082;-72
2021/08/07 08:15:55;;;;;;;3.67;2.28;;;;;;;32.51;40.41;99924.31;5114482;28;20170;-72
2021/08/07 08:18:26;;;;;;;3.60;3.08;;;;;;;33.13;38.42;99918.56;5113890;28;20052;-71
2021/08/07 08:20:55;;;;;;;3.92;2.45;;;;;;;34.13;35.99;99910.91;5131662;27;20030;-73
2021/08/07 08:23:24;;;;;;;5.38;2.55;;;;;;;34.75;35.13;99917.09;5131575;27;20031;-72
2021/08/07 08:25:52;;;;;;;4.35;2.67;;;;;;;35.45;33.92;99916.72;5114228;28;20051;-73
2021/08/07 08:28:18;;;;;;;7.82;2.95;;;;;;;35.40;34.04;99922.00;5114102;28;20106;-72
2021/08/07 08:30:44;;;;;;;6.03;2.72;;;;;;;35.05;33.38;99916.31;5113373;28;20122;-72
2021/08/07 08:33:10;;;;;;;5.50;2.90;;;;;;;34.44;35.05;99906.00;5113935;28;20073;-72
2021/08/07 08:35:41;;;;;;;4.05;3.17;;;;;;;35.13;33.92;99906.50;5115484;28;20024;-73
2021/08/07 08:38:09;;;;;;;6.43;3.03;;;;;;;34.49;35.45;99906.00;5113898;28;20062;-72
2021/08/07 08:40:37;;;;;;;3.53;2.83;;;;;;;34.51;35.13;99919.88;5115114;28;20031;-72
2021/08/07 08:43:03;;;;;;;5.55;2.97;;;;;;;33.41;36.92;99917.75;5131244;27;20470;-71
2021/08/07 08:45:32;;;;;;;5.28;2.78;;;;;;;34.25;35.42;99909.56;5113629;28;20028;-72
2021/08/07 08:48:02;;;;;;;5.85;2.70;;;;;;;33.22;37.63;99917.50;5114305;28;20027;-72
2021/08/07 08:50:31;;;;;;;6.40;3.10;;;;;;;33.66;36.38;99910.84;5130900;27;20019;-72
2021/08/07 08:52:57;;;;;;;3.67;2.80;;;;;;;34.62;35.26;99905.34;5096706;28;20243;-72
2021/08/07 08:55:25;;;;;;;5.18;2.88;;;;;;;35.22;33.79;99899.59;5114414;28;20084;-72
2021/08/07 08:57:56;;;;;;;7.68;2.80;;;;;;;35.93;33.03;99905.09;5114006;28;20054;-72
2021/08/07 09:00:24;;;;;;;4.50;3.17;;;;;;;36.87;31.43;99898.41;5113305;28;20035;-72
2021/08/07 09:02:52;;;;;;;6.25;3.67;;;;;;;35.95;32.52;99899.53;5113274;28;20027;-72
2021/08/07 09:05:20;;;;;;;6.45;3.65;;;;;;;35.58;33.49;99890.78;5112947;28;20043;-72
2021/08/07 09:07:51;;;;;;;5.70;3.58;;;;;;;35.47;32.95;99894.59;5113328;28;20073;-72
2021/08/07 09:10:21;;;;;;;6.32;4.00;;;;;;;34.42;34.43;99900.00;5113652;28;20400;-72
2021/08/07 09:12:55;;;;;;;7.50;3.35;;;;;;;35.07;33.32;99891.34;5114285;28;20032;-71
2021/08/07 09:15:31;;;;;;;6.65;3.78;;;;;;;34.88;34.29;99908.56;5113242;28;20027;-73
2021/08/07 09:18:15;;;;;;;3.90;3.22;;;;;;;35.63;33.44;99913.88;5113114;28;20052;-72
2021/08/07 09:20:45;;;;;;;10.32;3.30;;;;;;;35.83;32.52;99927.03;5113239;28;20062;-72
2021/08/07 09:23:13;;;;;;;5.30;3.17;;;;;;;36.03;31.36;99928.66;5096534;28;20042;-71
2021/08/07 09:25:48;;;;;;;7.85;3.15;;;;;;;36.44;31.54;99916.78;5114312;28;20030;-72
2021/08/07 09:28:19;;;;;;;3.65;2.65;;;;;;;35.88;32.42;99914.59;5113352;28;20387;-72
2021/08/07 09:30:49;;;;;;;2.67;2.47;;;;;;;36.81;30.73;99920.94;5113036;28;20024;-73
2021/08/07 09:33:24;;;;;;;5.82;3.05;;;;;;;36.62;31.00;99914.38;5112642;28;20028;-73
2021/08/07 09:35:50;;;;;;;4.45;2.05;;;;;;;36.52;31.49;99921.94;5130359;27;20024;-71
2021/08/07 09:38:23;;;;;;;7.60;3.47;;;;;;;36.51;31.52;99917.47;5130266;27;20561;-70
2021/08/07 09:40:57;;;;;;;5.20;2.00;;;;;;;36.53;32.64;99909.78;5129949;27;20462;-71
2021/08/07 09:43:33;;;;;;;4.63;2.15;;;;;;;36.56;32.90;99905.78;5112778;28;20043;-72
2021/08/07 09:46:08;;;;;;;3.85;2.22;;;;;;;36.72;33.42;99909.75;5113037;28;20490;-71
2021/08/07 09:48:43;;;;;;;2.63;1.98;;;;;;;36.60;33.29;99908.38;5114416;28;20380;-71
2021/08/07 09:51:22;;;;;;;3.97;2.50;;;;;;;34.76;35.96;99901.31;5112637;28;20032;-71
2021/08/07 09:54:15;;;;;;;3.97;2.20;;;;;;;35.40;34.62;99906.75;5113061;28;20039;-72
2021/08/07 09:56:48;;;;;;;4.38;2.08;;;;;;;35.74;34.42;99912.94;5114262;28;20023;-73
2021/08/07 09:59:15;;;;;;;3.90;2.03;;;;;;;34.97;34.81;99910.34;5112693;28;20066;-72
2021/08/07 10:01:43;;;;;;;5.57;2.22;;;;;;;35.50;33.87;99915.88;5112917;28;20077;-73
2021/08/07 10:04:16;;;;;;;2.75;2.00;;;;;;;36.05;33.04;99913.63;5112854;28;20023;-72
2021/08/07 10:06:47;;;;;;;2.67;1.90;;;;;;;35.64;33.17;99917.56;5113229;28;20374;-72
2021/08/07 10:09:30;;;;;;;2.10;1.90;;;;;;;35.54;33.66;99925.06;5129698;28;20019;-71
2021/08/07 10:12:05;;;;;;;4.28;2.10;;;;;;;35.56;33.67;99925.28;5130238;28;20447;-71
2021/08/07 10:14:30;;;;;;;3.65;2.10;;;;;;;35.70;33.07;99912.50;5112596;28;20035;-72
2021/08/07 10:17:06;;;;;;;2.30;2.08;;;;;;;36.22;31.91;99925.75;5112548;28;20367;-71
2021/08/07 10:19:38;;;;;;;2.33;1.98;;;;;;;35.65;33.05;99910.44;5112201;28;20452;-72
2021/08/07 10:22:06;;;;;;;4.03;1.90;;;;;;;36.05;32.47;99925.22;5112846;28;20437;-71
2021/08/07 10:24:40;;;;;;;8.95;2.30;;;;;;;35.45;33.38;99920.41;5129576;28;20035;-71
2021/08/07 10:27:09;;;;;;;3.03;1.80;;;;;;;36.50;31.07;99919.59;5113732;28;20042;-72
2021/08/07 10:29:42;;;;;;;1.92;1.48;;;;;;;35.95;32.46;99921.91;5113515;28;20027;-71
2021/08/07 10:32:21;;;;;;;2.20;1.58;;;;;;;35.45;32.96;99916.72;5129570;28;20031;-72
2021/08/07 10:34:52;;;;;;;2.95;1.75;;;;;;;36.01;32.11;99913.97;5113585;28;20031;-72
2021/08/07 10:37:21;;;;;;;2.95;1.80;;;;;;;36.05;30.64;99919.41;5113996;28;20024;-71
2021/08/07 10:39:52;;;;;;;2.03;1.38;;;;;;;36.06;30.69;99915.19;5130045;28;20032;-72
2021/08/07 10:42:20;;;;;;;1.80;1.48;;;;;;;35.37;32.74;99908.63;5112592;28;20027;-70
2021/08/07 10:44:47;;;;;;;2.55;1.65;;;;;;;35.59;33.89;99912.63;5113637;28;20036;-71
2021/08/07 10:47:43;;;;;;;5.03;1.90;;;;;;;35.81;33.96;99921.03;5129502;28;20553;-71
2021/08/07 10:50:29;;;;;;;3.40;1.70;;;;;;;36.19;32.81;99912.38;5113478;28;20035;-71
2021/08/07 10:53:01;;;;;;;5.13;1.80;;;;;;;36.37;32.78;99928.94;5114343;28;20028;-72
2021/08/07 10:55:47;;;;;;;2.85;1.83;;;;;;;36.17;33.43;99929.53;5116113;28;20097;-71
2021/08/07 10:58:37;;;;;;;1.88;1.58;;;;;;;36.52;33.09;99933.50;5115884;28;20028;-71
2021/08/07 11:01:21;;;;;;;3.05;2.03;;;;;;;35.72;33.73;99938.75;5116296;28;20026;-72
2021/08/07 11:04:02;;;;;;;2.60;1.77;;;;;;;35.22;34.23;99928.50;5116354;28;20035;-72
2021/08/07 11:06:43;;;;;;;4.43;1.67;;;;;;;36.01;34.04;99939.22;5115855;28;20027;-71
2021/08/07 11:09:21;;;;;;;2.78;1.65;;;;;;;36.09;32.94;99938.03;5116294;28;20130;-72
2021/08/07 11:12:10;;;;;;;3.55;1.80;;;;;;;34.79;35.14;99945.69;5115650;28;20031;-71
2021/08/07 11:14:35;;;;;;;6.25;1.80;;;;;;;34.38;36.63;99937.81;5115461;28;20024;-71
2021/08/07 11:17:04;;;;;;;2.75;1.55;;;;;;;35.36;34.67;99944.66;5116478;28;20370;-71
2021/08/07 11:19:59;;;;;;;2.38;1.20;;;;;;;34.86;34.84;99934.31;5115168;28;20047;-71
2021/08/07 11:22:40;;;;;;;5.13;1.88;;;;;;;35.11;34.72;99931.53;5115999;28;20028;-71
2021/08/07 11:25:22;;;;;;;3.08;1.85;;;;;;;35.25;35.00;99930.31;5115159;28;20043;-71
2021/08/07 11:30:42;;;;;;;4.60;1.40;;;;;;;35.39;33.61;99929.13;5116896;28;20124;-70
2021/08/07 11:33:11;;;;;;;3.63;1.10;;;;;;;35.19;32.54;99912.25;5115655;28;20199;-71
2021/08/07 11:35:45;;;;;;;4.15;1.50;;;;;;;34.93;35.10;99925.06;5115264;28;20028;-71
2021/08/07 11:38:23;;;;;;;2.38;1.58;;;;;;;34.82;34.81;99915.72;5115270;28;20053;-71
2021/08/07 11:41:00;;;;;;;3.78;1.80;;;;;;;34.37;34.73;99910.25;5115154;27;20027;-71
2021/08/07 11:43:32;;;;;;;6.43;1.65;;;;;;;35.22;33.39;99922.72;5132278;27;20024;-70
2021/08/07 11:45:59;;;;;;;2.13;1.60;;;;;;;34.93;32.83;99913.50;5115088;28;20028;-71
2021/08/07 11:48:37;;;;;;;3.60;1.13;;;;;;;34.59;33.76;99898.56;5117073;28;20043;-72